Terminal Aerodrome Forecast
Issued by NWS

Home | Current Version | Previous Version | Text Only | Print | Product List | Glossary On
Versions: 1 2 3 4 5 6 7 8 9 10 11 12 13 14 15 16 17 18 19 20 21 22 23 24 25 26 27 28
944
FTUS42 KFFC 261507 AAB
TAFPDK
TAF AMD
KPDK 261507Z 2615/2712 16004KT P6SM SCT025
     FM261600 19009KT P6SM BKN025
     FM261800 19009KT P6SM VCSH BKN035
      TEMPO 2620/2623 6SM SHRA
     FM270000 17005KT P6SM BKN050
     FM270500 19004KT P6SM BKN035
     FM270900 21003KT 4SM BR BKN020=

USA.gov is the U.S. government's official web portal to all federal, state and local government web resources and services.